Terminal Aerodrome Forecast
Issued by NWS Glasgow, MT

Home | Current Version | Previous Version | Text Only | Print | Product List | Glossary On
Versions: 1 2 3 4 5 6 7 8 9 10 11 12 13 14 15
297
FTUS45 KGGW 281347 AAA
TAFGGW
TAF AMD
KGGW 281347Z 2814/2912 07006KT P6SM SCT005 SCT060
      TEMPO 2814/2815 BKN005
     FM281600 10006KT P6SM FEW010 SCT070
     FM282000 12006KT P6SM VCTS SCT080CB
     FM290000 10006KT P6SM SCT110=

USA.gov is the U.S. government's official web portal to all federal, state and local government web resources and services.